createdAt,value
2018-07-27T00:01:33.330Z,24.40
2018-07-27T00:04:02.233Z,24.30
2018-07-27T00:06:30.448Z,24.20
2018-07-27T00:08:58.695Z,24.10
2018-07-27T00:11:27.246Z,24.10
2018-07-27T00:13:55.486Z,24.10
2018-07-27T00:16:23.732Z,24.10
2018-07-27T00:18:52.272Z,24.10
2018-07-27T00:21:20.834Z,24.00
2018-07-27T00:23:49.062Z,24.00
2018-07-27T00:26:17.313Z,23.90
2018-07-27T00:28:45.526Z,23.90
2018-07-27T00:31:14.097Z,23.80
2018-07-27T00:33:42.657Z,23.80
2018-07-27T00:36:10.897Z,23.90
2018-07-27T00:38:39.437Z,23.80
2018-07-27T00:41:07.680Z,23.80
2018-07-27T00:43:35.890Z,23.70
2018-07-27T00:46:04.473Z,23.70
2018-07-27T00:48:32.730Z,23.70
2018-07-27T00:51:01.311Z,23.60
2018-07-27T00:53:29.870Z,23.60
2018-07-27T00:55:58.197Z,23.70
2018-07-27T00:58:26.409Z,23.70
2018-07-27T01:00:54.645Z,23.60
2018-07-27T01:03:22.863Z,23.60
2018-07-27T01:05:51.798Z,23.60
2018-07-27T01:08:20.044Z,23.60
2018-07-27T01:10:48.298Z,23.50
2018-07-27T01:13:16.854Z,23.50
2018-07-27T01:15:45.409Z,23.50
2018-07-27T01:18:13.997Z,23.50
2018-07-27T01:20:42.750Z,23.60
2018-07-27T01:23:10.983Z,23.50
2018-07-27T01:25:39.511Z,23.60
2018-07-27T01:28:08.095Z,23.60
2018-07-27T01:30:36.712Z,23.60
2018-07-27T01:33:05.622Z,23.50
2018-07-27T01:35:33.849Z,23.60
2018-07-27T01:38:02.336Z,23.60
2018-07-27T01:40:31.148Z,23.70
2018-07-27T01:42:59.365Z,23.70
2018-07-27T01:45:27.630Z,23.70
2018-07-27T01:47:56.831Z,23.70
2018-07-27T01:50:25.049Z,23.60
2018-07-27T01:52:53.264Z,23.60
2018-07-27T01:55:21.843Z,23.50
2018-07-27T01:57:50.408Z,23.50
2018-07-27T02:00:18.621Z,23.50
2018-07-27T02:02:46.873Z,23.40
2018-07-27T02:05:15.480Z,23.40
2018-07-27T02:07:43.740Z,23.50
2018-07-27T02:10:12.304Z,23.40
2018-07-27T02:12:40.533Z,23.30
2018-07-27T02:15:09.947Z,23.20
2018-07-27T02:17:39.264Z,23.20
2018-07-27T02:20:07.492Z,23.10
2018-07-27T02:22:36.533Z,23.10
2018-07-27T02:25:04.913Z,23.10
2018-07-27T02:27:33.493Z,23.00
2018-07-27T02:30:02.050Z,23.00
2018-07-27T02:32:30.624Z,22.90
2018-07-27T02:34:58.856Z,22.80
2018-07-27T02:37:27.422Z,22.80
2018-07-27T02:39:55.696Z,22.80
2018-07-27T02:42:23.966Z,22.80
2018-07-27T02:44:52.172Z,22.70
2018-07-27T02:47:20.745Z,22.70
2018-07-27T02:49:49.342Z,22.80
2018-07-27T02:52:18.525Z,22.70
2018-07-27T02:54:47.132Z,22.70
2018-07-27T02:57:15.661Z,22.60
2018-07-27T02:59:44.371Z,22.50
2018-07-27T03:02:12.583Z,22.50
2018-07-27T03:04:42.962Z,22.50
2018-07-27T03:07:11.515Z,22.60
2018-07-27T03:09:45.699Z,22.70
2018-07-27T03:12:14.695Z,22.60
2018-07-27T03:14:43.207Z,22.60
2018-07-27T03:17:11.711Z,22.60
2018-07-27T03:19:40.250Z,22.60
2018-07-27T03:22:08.831Z,22.50
2018-07-27T03:24:37.338Z,22.50
2018-07-27T03:27:05.838Z,22.50
2018-07-27T03:29:34.353Z,22.60
2018-07-27T03:32:03.177Z,22.50
2018-07-27T03:34:31.683Z,22.50
2018-07-27T03:37:00.201Z,22.40
2018-07-27T03:41:56.965Z,22.40
2018-07-27T03:44:25.794Z,22.40
2018-07-27T03:46:54.389Z,22.40
2018-07-27T03:49:22.873Z,22.40
2018-07-27T03:51:51.708Z,22.50
2018-07-27T03:54:20.561Z,22.40
2018-07-27T03:56:49.036Z,22.40
2018-07-27T03:59:17.592Z,22.50
2018-07-27T04:01:45.796Z,22.50
2018-07-27T04:06:42.633Z,22.40
2018-07-27T04:09:11.139Z,22.30
2018-07-27T04:11:40.286Z,22.20
2018-07-27T04:14:09.180Z,22.10
2018-07-27T04:16:38.351Z,22.10
2018-07-27T04:19:07.533Z,22.10
2018-07-27T04:21:36.413Z,22.20
2018-07-27T04:24:05.245Z,22.10
2018-07-27T04:26:33.725Z,22.30
2018-07-27T04:29:02.248Z,22.20
2018-07-27T04:31:31.097Z,22.20
2018-07-27T04:33:59.620Z,22.20
2018-07-27T04:36:28.494Z,22.00
2018-07-27T04:38:57.021Z,22.00
2018-07-27T04:41:25.872Z,22.10
2018-07-27T04:43:54.790Z,22.20
2018-07-27T04:46:23.638Z,22.30
2018-07-27T04:48:52.472Z,22.40
2018-07-27T04:51:21.310Z,22.50
2018-07-27T04:56:18.764Z,22.40
2018-07-27T04:58:47.610Z,22.50
2018-07-27T05:01:16.806Z,22.40
2018-07-27T05:03:45.968Z,22.40
2018-07-27T05:06:14.816Z,22.40
2018-07-27T05:08:49.088Z,22.50
2018-07-27T05:11:17.945Z,22.60
2018-07-27T05:13:46.465Z,22.70
2018-07-27T05:16:15.674Z,22.70
2018-07-27T05:18:44.802Z,22.60
2018-07-27T05:21:13.678Z,22.60
2018-07-27T05:23:42.204Z,22.60
2018-07-27T05:26:10.520Z,22.60
2018-07-27T05:28:39.694Z,22.70
2018-07-27T05:31:08.541Z,22.80
2018-07-27T05:33:36.785Z,22.80
2018-07-27T05:36:05.841Z,22.80
2018-07-27T05:38:35.021Z,22.80
2018-07-27T05:41:03.260Z,22.70
2018-07-27T05:43:32.207Z,22.70
2018-07-27T05:46:01.385Z,22.70
2018-07-27T05:48:29.644Z,22.80
2018-07-27T05:50:58.224Z,22.80
2018-07-27T05:53:26.810Z,22.80
2018-07-27T05:55:55.309Z,22.90
2018-07-27T05:58:23.869Z,22.90
2018-07-27T06:00:53.159Z,22.90
2018-07-27T06:03:21.982Z,22.70
2018-07-27T06:05:50.837Z,22.90
2018-07-27T06:08:19.419Z,23.00
2018-07-27T06:10:48.641Z,23.10
2018-07-27T06:13:17.624Z,23.10
2018-07-27T06:15:46.197Z,23.00
2018-07-27T06:18:14.853Z,23.10
2018-07-27T06:20:43.477Z,23.10
2018-07-27T06:23:11.981Z,23.10
2018-07-27T06:25:41.177Z,23.10
2018-07-27T06:28:10.203Z,23.00
2018-07-27T06:30:38.849Z,23.10
2018-07-27T06:33:07.694Z,23.30
2018-07-27T06:35:36.911Z,23.30
2018-07-27T06:38:05.415Z,23.50
2018-07-27T06:40:34.246Z,23.60
2018-07-27T06:43:03.021Z,23.60
2018-07-27T06:45:31.267Z,23.60
2018-07-27T06:47:59.816Z,23.60
2018-07-27T06:50:28.332Z,23.60
2018-07-27T06:52:56.822Z,23.70
2018-07-27T06:55:25.713Z,23.70
2018-07-27T06:57:54.418Z,23.50
2018-07-27T07:00:23.262Z,23.50
2018-07-27T07:05:20.107Z,23.80
2018-07-27T07:07:48.322Z,24.20
2018-07-27T07:10:16.546Z,24.30
2018-07-27T07:12:45.111Z,24.60
2018-07-27T07:15:13.362Z,24.70
2018-07-27T07:17:41.941Z,24.80
2018-07-27T07:20:10.459Z,25.00
2018-07-27T07:22:38.934Z,25.10
2018-07-27T07:25:07.255Z,25.10
2018-07-27T07:27:35.675Z,25.10
2018-07-27T07:30:03.977Z,25.30
2018-07-27T07:32:32.206Z,25.40
2018-07-27T07:35:01.202Z,25.60
2018-07-27T07:37:29.425Z,25.70
2018-07-27T07:39:57.983Z,25.80
2018-07-27T07:42:26.213Z,25.90
2018-07-27T07:44:54.485Z,26.00
2018-07-27T07:47:23.330Z,26.10
2018-07-27T07:51:16.037Z,26.20
2018-07-27T07:53:44.635Z,26.30
2018-07-27T07:56:13.188Z,26.40
2018-07-27T07:58:41.767Z,26.50
2018-07-27T08:01:10.482Z,26.60
2018-07-27T08:03:39.054Z,26.70
2018-07-27T08:06:07.621Z,26.80
2018-07-27T08:08:36.176Z,26.90
2018-07-27T08:11:04.778Z,27.00
2018-07-27T08:13:33.517Z,27.10
2018-07-27T08:16:02.076Z,27.20
2018-07-27T08:18:30.641Z,27.40
2018-07-27T08:20:59.346Z,27.60
2018-07-27T08:23:27.968Z,27.70
2018-07-27T08:27:02.246Z,27.80
2018-07-27T08:29:34.630Z,28.00
2018-07-27T08:32:03.264Z,28.00
2018-07-27T08:34:31.823Z,28.10
2018-07-27T08:37:00.380Z,28.40
2018-07-27T08:39:29.844Z,28.40
2018-07-27T08:41:58.397Z,28.50
2018-07-27T08:44:29.304Z,28.70
2018-07-27T08:46:57.539Z,28.90
2018-07-27T08:49:26.089Z,29.10
2018-07-27T08:51:54.309Z,29.30
2018-07-27T08:54:22.534Z,29.50
2018-07-27T08:56:51.498Z,29.50
2018-07-27T08:59:19.721Z,29.50
2018-07-27T09:01:48.608Z,29.70
2018-07-27T09:04:17.283Z,30.00
2018-07-27T09:06:45.508Z,30.20
2018-07-27T09:09:14.901Z,30.50
2018-07-27T09:11:43.115Z,30.60
2018-07-27T09:14:11.645Z,30.60
2018-07-27T09:16:39.859Z,30.80
2018-07-27T09:19:08.421Z,31.10
2018-07-27T09:21:36.958Z,31.30
2018-07-27T09:24:05.230Z,31.40
2018-07-27T09:26:33.828Z,31.60
2018-07-27T09:29:02.705Z,31.50
2018-07-27T09:31:31.336Z,31.50
2018-07-27T09:34:00.174Z,31.60
2018-07-27T09:36:29.067Z,31.60
2018-07-27T09:38:57.950Z,31.60
2018-07-27T09:41:26.766Z,31.50
2018-07-27T09:43:55.613Z,31.50
2018-07-27T09:46:24.197Z,31.40
2018-07-27T09:48:54.205Z,31.30
2018-07-27T09:51:24.580Z,31.10
2018-07-27T09:53:54.475Z,30.90
2018-07-27T09:56:23.200Z,30.70
2018-07-27T09:58:51.802Z,30.60
2018-07-27T10:01:25.514Z,30.50
2018-07-27T10:03:54.835Z,30.40
2018-07-27T10:06:23.888Z,30.40
2018-07-27T10:08:52.649Z,30.40
2018-07-27T10:11:21.717Z,30.40
2018-07-27T10:13:50.432Z,30.50
2018-07-27T10:16:19.153Z,30.70
2018-07-27T10:18:48.033Z,31.10
2018-07-27T10:21:16.977Z,31.50
2018-07-27T10:23:46.546Z,31.80
2018-07-27T10:26:14.769Z,32.10
2018-07-27T10:28:42.981Z,32.40
2018-07-27T10:31:11.564Z,32.50
2018-07-27T10:33:40.766Z,32.70
2018-07-27T10:36:09.562Z,32.30
2018-07-27T10:38:38.184Z,32.00
2018-07-27T10:41:07.014Z,31.80
2018-07-27T10:43:35.358Z,31.90
2018-07-27T10:46:04.261Z,32.10
2018-07-27T10:48:32.476Z,32.30
2018-07-27T10:51:01.364Z,32.20
2018-07-27T10:53:29.559Z,31.90
2018-07-27T10:55:58.112Z,31.70
2018-07-27T10:58:26.981Z,31.60
2018-07-27T11:00:55.210Z,31.50
2018-07-27T11:03:24.647Z,31.50
2018-07-27T11:05:53.149Z,31.30
2018-07-27T11:08:22.217Z,31.40
2018-07-27T11:10:50.432Z,31.50
2018-07-27T11:13:18.647Z,31.40
2018-07-27T11:15:46.882Z,31.40
2018-07-27T11:18:15.763Z,31.40
2018-07-27T11:20:44.224Z,31.30
2018-07-27T11:23:13.080Z,31.30
2018-07-27T11:25:42.018Z,31.20
2018-07-27T11:28:11.069Z,31.20
2018-07-27T11:30:39.316Z,31.10
2018-07-27T11:33:07.857Z,31.00
2018-07-27T11:35:36.097Z,31.00
2018-07-27T11:38:04.331Z,31.00
2018-07-27T11:40:32.912Z,31.00
2018-07-27T11:43:01.792Z,31.40
2018-07-27T11:45:30.344Z,31.60
2018-07-27T11:47:59.470Z,32.00
2018-07-27T11:50:28.024Z,32.20
2018-07-27T11:52:56.589Z,32.40
2018-07-27T11:57:53.700Z,32.80
2018-07-27T12:00:22.234Z,32.90
2018-07-27T12:02:50.978Z,32.80
2018-07-27T12:05:19.517Z,32.50
2018-07-27T12:07:48.085Z,32.30
2018-07-27T12:10:16.305Z,32.10
2018-07-27T12:12:44.858Z,32.10
2018-07-27T12:15:13.292Z,32.10
2018-07-27T12:17:41.505Z,32.20
2018-07-27T12:20:10.380Z,32.30
2018-07-27T12:22:39.540Z,32.30
2018-07-27T12:25:08.080Z,32.20
2018-07-27T12:27:36.570Z,32.30
2018-07-27T12:38:18.937Z,32.60
2018-07-27T12:40:47.152Z,32.80
2018-07-27T12:43:15.711Z,33.10
2018-07-27T12:45:43.944Z,33.30
2018-07-27T12:48:12.171Z,33.50
2018-07-27T12:50:40.712Z,33.70
2018-07-27T12:53:08.975Z,33.70
2018-07-27T12:55:38.230Z,33.80
2018-07-27T12:58:06.760Z,33.80
2018-07-27T13:00:34.965Z,33.70
2018-07-27T13:03:03.840Z,33.50
2018-07-27T13:05:32.502Z,33.30
2018-07-27T13:08:00.827Z,33.20
2018-07-27T13:10:29.044Z,33.10
2018-07-27T13:12:57.290Z,32.90
2018-07-27T13:15:25.553Z,32.80
2018-07-27T13:17:54.105Z,32.70
2018-07-27T13:20:22.377Z,32.60
2018-07-27T13:22:50.922Z,32.60
2018-07-27T13:25:19.122Z,32.50
2018-07-27T13:27:47.672Z,32.40
2018-07-27T13:30:16.229Z,32.40
2018-07-27T13:32:44.783Z,32.20
2018-07-27T13:40:11.038Z,32.10
2018-07-27T13:42:40.185Z,32.10
2018-07-27T13:47:36.755Z,31.90
2018-07-27T13:50:05.003Z,31.90
2018-07-27T13:52:33.569Z,31.80
2018-07-27T13:55:03.718Z,31.60
2018-07-27T13:57:32.315Z,31.50
2018-07-27T14:00:00.661Z,31.10
2018-07-27T14:02:28.877Z,30.80
2018-07-27T14:04:58.207Z,30.30
2018-07-27T14:07:26.765Z,30.30
2018-07-27T14:09:55.709Z,30.10
2018-07-27T14:12:24.298Z,29.80
2018-07-27T14:14:52.521Z,29.90
2018-07-27T14:17:20.750Z,29.90
2018-07-27T14:19:50.019Z,29.70
2018-07-27T14:22:20.902Z,29.50
2018-07-27T14:24:52.710Z,29.50
2018-07-27T14:27:21.578Z,29.50
2018-07-27T14:29:51.893Z,29.80
2018-07-27T14:32:20.701Z,30.00
2018-07-27T14:34:49.824Z,30.40
2018-07-27T14:37:18.374Z,30.80
2018-07-27T14:39:47.258Z,31.10
2018-07-27T14:42:15.481Z,31.40
2018-07-27T14:44:44.597Z,31.30
2018-07-27T14:47:13.612Z,31.10
2018-07-27T14:49:41.824Z,30.90
2018-07-27T14:52:10.654Z,31.10
2018-07-27T14:54:39.373Z,31.00
2018-07-27T14:57:08.764Z,31.10
2018-07-27T14:59:37.042Z,31.00
2018-07-27T15:02:05.383Z,31.00
2018-07-27T15:04:33.628Z,30.70
2018-07-27T15:07:03.872Z,30.50
2018-07-27T15:09:32.121Z,30.30
2018-07-27T15:12:00.741Z,30.10
2018-07-27T15:14:29.370Z,30.10
2018-07-27T15:16:57.940Z,29.90
2018-07-27T15:19:29.866Z,29.80
2018-07-27T15:21:58.130Z,29.90
2018-07-27T15:24:28.581Z,29.80
2018-07-27T15:26:57.218Z,29.70
2018-07-27T15:29:25.790Z,29.70
2018-07-27T15:31:54.860Z,29.70
2018-07-27T15:34:23.172Z,29.80
2018-07-27T15:36:53.139Z,29.70
2018-07-27T15:39:21.750Z,29.60
2018-07-27T15:41:49.970Z,29.40
2018-07-27T15:44:18.193Z,29.30
2018-07-27T15:46:47.157Z,29.10
2018-07-27T15:49:16.243Z,28.90
2018-07-27T15:51:45.177Z,28.50
2018-07-27T15:54:13.448Z,28.40
2018-07-27T15:56:42.041Z,28.20
2018-07-27T15:59:10.268Z,28.10
2018-07-27T16:01:38.853Z,28.30
2018-07-27T16:04:07.093Z,28.50
2018-07-27T16:06:35.644Z,28.70
2018-07-27T16:09:06.647Z,28.80
2018-07-27T16:11:35.242Z,28.80
2018-07-27T16:14:04.273Z,28.80
2018-07-27T16:16:32.661Z,28.90
2018-07-27T16:19:00.892Z,28.80
2018-07-27T16:21:29.785Z,28.80
2018-07-27T16:23:58.021Z,28.80
2018-07-27T16:26:26.297Z,28.70
2018-07-27T16:28:54.851Z,28.60
2018-07-27T16:31:23.134Z,28.40
2018-07-27T16:33:52.076Z,28.30
2018-07-27T16:36:20.988Z,28.30
2018-07-27T16:38:49.235Z,28.40
2018-07-27T16:41:17.474Z,28.40
2018-07-27T16:43:46.608Z,28.40
2018-07-27T16:46:15.505Z,28.40
2018-07-27T16:48:43.727Z,28.30
2018-07-27T16:51:13.011Z,28.30
2018-07-27T16:53:42.596Z,28.30
2018-07-27T16:56:11.173Z,28.20
2018-07-27T16:58:39.446Z,28.10
2018-07-27T17:01:08.370Z,28.10
2018-07-27T17:03:36.600Z,27.90
2018-07-27T17:06:05.216Z,27.80
2018-07-27T17:08:33.600Z,27.80
2018-07-27T17:11:01.826Z,27.70
2018-07-27T17:13:30.431Z,27.60
2018-07-27T17:15:59.215Z,27.30
2018-07-27T17:18:28.246Z,27.20
2018-07-27T17:23:24.839Z,27.20
2018-07-27T17:25:53.119Z,27.20
2018-07-27T17:28:21.576Z,27.20
2018-07-27T17:30:50.984Z,27.10
2018-07-27T17:33:19.258Z,27.00
2018-07-27T17:35:47.705Z,26.90
2018-07-27T17:38:16.295Z,26.90
2018-07-27T17:40:44.905Z,26.90
2018-07-27T17:43:13.822Z,26.90
2018-07-27T17:45:42.397Z,27.00
2018-07-27T17:48:10.941Z,27.00
2018-07-27T17:50:40.188Z,27.00
2018-07-27T17:53:08.436Z,27.00
2018-07-27T17:55:36.657Z,26.90
2018-07-27T17:58:05.023Z,26.90
2018-07-27T18:00:34.944Z,26.90
2018-07-27T18:03:03.862Z,26.90
2018-07-27T18:05:32.757Z,26.90
2018-07-27T18:08:01.384Z,26.90
2018-07-27T18:10:29.781Z,26.80
2018-07-27T18:12:58.035Z,26.60
2018-07-27T18:15:26.609Z,26.60
2018-07-27T18:17:54.846Z,26.50
2018-07-27T18:20:23.096Z,26.50
2018-07-27T18:22:51.453Z,26.40
2018-07-27T18:25:19.688Z,26.40
2018-07-27T18:27:48.838Z,26.30
2018-07-27T18:30:17.465Z,26.20
2018-07-27T18:32:45.945Z,26.30
2018-07-27T18:35:14.234Z,26.30
2018-07-27T18:37:42.480Z,26.30
2018-07-27T18:40:11.036Z,26.30
2018-07-27T18:42:39.405Z,26.20
2018-07-27T18:45:08.254Z,26.10
2018-07-27T18:47:36.928Z,26.10
2018-07-27T18:50:05.784Z,26.00
2018-07-27T18:52:34.021Z,25.90
2018-07-27T18:55:02.659Z,25.80
2018-07-27T18:57:31.352Z,25.80
2018-07-27T18:59:59.584Z,25.70
2018-07-27T19:02:28.169Z,25.60
2018-07-27T19:04:56.413Z,25.60
2018-07-27T19:07:25.283Z,25.50
2018-07-27T19:09:53.528Z,25.50
2018-07-27T19:12:21.745Z,25.60
2018-07-27T19:14:49.949Z,25.60
2018-07-27T19:17:20.017Z,25.50
2018-07-27T19:19:48.577Z,25.40
2018-07-27T19:22:17.155Z,25.40
2018-07-27T19:24:45.694Z,25.50
2018-07-27T19:27:13.949Z,25.50
2018-07-27T19:29:42.224Z,25.60
2018-07-27T19:32:10.442Z,25.60
2018-07-27T19:34:38.673Z,25.50
2018-07-27T19:37:07.873Z,25.50
2018-07-27T19:39:36.089Z,25.50
2018-07-27T19:42:04.334Z,25.50
2018-07-27T19:44:34.033Z,25.50
2018-07-27T19:47:02.585Z,25.50
2018-07-27T19:49:30.822Z,25.50
2018-07-27T19:51:59.067Z,25.60
2018-07-27T19:54:27.404Z,25.60
2018-07-27T19:56:56.141Z,25.60
2018-07-27T19:59:24.768Z,25.50
2018-07-27T20:01:53.009Z,25.50
2018-07-27T20:04:21.287Z,25.50
2018-07-27T20:06:49.874Z,25.50
2018-07-27T20:09:18.473Z,25.50
2018-07-27T20:11:47.055Z,25.60
2018-07-27T20:14:15.292Z,25.50
2018-07-27T20:16:43.858Z,25.50
2018-07-27T20:19:12.113Z,25.50
2018-07-27T20:21:40.472Z,25.50
2018-07-27T20:24:09.398Z,25.40
2018-07-27T20:26:38.021Z,25.40
2018-07-27T20:29:06.584Z,25.30
2018-07-27T20:31:35.213Z,25.30
2018-07-27T20:34:04.097Z,25.30
2018-07-27T20:36:32.677Z,25.20
2018-07-27T20:39:01.546Z,25.30
2018-07-27T20:41:30.114Z,25.20
2018-07-27T20:43:58.374Z,25.20
2018-07-27T20:46:26.773Z,25.20
2018-07-27T20:48:54.994Z,25.20
2018-07-27T20:51:23.231Z,25.20
2018-07-27T20:53:52.201Z,25.20
2018-07-27T20:56:20.460Z,25.20
2018-07-27T20:58:49.001Z,25.20
2018-07-27T21:01:17.550Z,25.20
2018-07-27T21:03:46.141Z,25.20
2018-07-27T21:06:14.361Z,25.00
2018-07-27T21:08:42.969Z,24.90
2018-07-27T21:12:35.799Z,24.70
2018-07-27T21:15:04.384Z,24.60
2018-07-27T21:17:32.947Z,24.70
2018-07-27T21:20:01.181Z,24.60
2018-07-27T21:22:29.754Z,24.60
2018-07-27T21:25:00.299Z,24.60
2018-07-27T21:27:29.278Z,24.60
2018-07-27T21:29:58.273Z,24.60
2018-07-27T21:32:28.557Z,24.60
2018-07-27T21:34:56.822Z,24.60
2018-07-27T21:37:25.289Z,24.50
2018-07-27T21:39:54.541Z,24.50
2018-07-27T21:42:23.494Z,24.50
2018-07-27T21:44:51.842Z,24.50
2018-07-27T21:47:21.262Z,24.50
2018-07-27T21:49:50.150Z,24.50
2018-07-27T21:52:19.093Z,24.50
2018-07-27T21:54:48.366Z,24.50
2018-07-27T21:57:17.416Z,24.50
2018-07-27T21:59:46.058Z,24.50
2018-07-27T22:04:44.505Z,24.50
2018-07-27T22:07:12.799Z,24.50
2018-07-27T22:09:41.113Z,24.40
2018-07-27T22:14:37.505Z,24.40
2018-07-27T22:17:06.305Z,24.30
2018-07-27T22:19:34.580Z,24.30
2018-07-27T22:22:03.501Z,24.20
2018-07-27T22:24:31.792Z,24.20
2018-07-27T22:27:00.399Z,24.20
2018-07-27T22:29:29.281Z,24.10
2018-07-27T22:31:57.523Z,24.20
2018-07-27T22:34:26.098Z,24.20
2018-07-27T22:36:54.365Z,24.20
2018-07-27T22:39:22.996Z,24.20
2018-07-27T22:41:51.553Z,24.10
2018-07-27T22:44:19.800Z,24.10
2018-07-27T22:46:48.382Z,24.10
2018-07-27T22:49:16.606Z,24.00
2018-07-27T22:51:44.829Z,24.00
2018-07-27T22:54:13.037Z,24.00
2018-07-27T22:56:41.273Z,24.00
2018-07-27T22:59:09.525Z,24.10
2018-07-27T23:01:38.101Z,24.10
2018-07-27T23:04:07.325Z,24.10
2018-07-27T23:06:35.572Z,24.10
2018-07-27T23:09:06.160Z,24.10
2018-07-27T23:11:34.384Z,24.00
2018-07-27T23:14:03.277Z,24.10
2018-07-27T23:16:32.727Z,24.00
2018-07-27T23:19:01.283Z,24.00
2018-07-27T23:21:30.352Z,24.00
2018-07-27T23:23:58.965Z,23.90
2018-07-27T23:26:27.217Z,23.90
2018-07-27T23:28:55.424Z,23.90
2018-07-27T23:31:23.989Z,23.90
2018-07-27T23:33:52.553Z,23.90
2018-07-27T23:36:20.755Z,23.90
2018-07-27T23:38:49.607Z,23.90
2018-07-27T23:41:22.893Z,23.80
2018-07-27T23:43:51.477Z,23.70
2018-07-27T23:46:21.604Z,23.70
2018-07-27T23:48:49.867Z,23.70
2018-07-27T23:51:18.421Z,23.70
2018-07-27T23:53:47.316Z,23.60
2018-07-27T23:56:15.553Z,23.60
2018-07-27T23:58:44.088Z,23.60
